Terminal Aerodrome Forecast
Issued by NWS

Home | Current Version | Previous Version | Graphics & Text | Print | Product List | Glossary On
Versions: 1 2 3 4 5 6 7 8 9 10 11 12 13 14 15 16 17 18 19 20 21 22 23 24 25 26 27
000
FTUS43 KGRB 250300 AAA
TAFRHI
TAF AMD
KRHI 250322Z 2503/2524 24007KT 6SM BR SCT006 OVC012
      TEMPO 2503/2506 3SM BR BKN006
     FM250600 27007KT 6SM BR SCT012 WS014/30035KT
     FM251400 28014G24KT P6SM SKC
     FM252300 27008KT P6SM SKC=

USA.gov is the U.S. government's official web portal to all federal, state and local government web resources and services.